Time;durP1;ratioP1;P1;durP2;ratioP2;P2;SDS_P1;SDS_P2;PMS_P1;PMS_P2;Temp;Humidity;BMP_temperature;BMP_pressure;BME280_temperature;BME280_humidity;BME280_pressure;Samples;Min_cycle;Max_cycle;Signal;HPM_P1;HPM_P2
2023/09/12 00:00:39;;;;;;;0.10;0.10;;;;;;;21.82;71.43;101389.56;5081483;28;20088;-80
2023/09/12 00:03:05;;;;;;;0.57;0.57;;;;;;;21.80;71.27;101383.38;5087616;28;20024;-81
2023/09/12 00:05:31;;;;;;;0.50;0.50;;;;;;;21.78;71.58;101390.66;5081461;28;20036;-78
2023/09/12 00:07:57;;;;;;;0.43;0.43;;;;;;;21.77;71.13;101387.13;5084855;28;20051;-80
2023/09/12 00:10:24;;;;;;;1.27;0.60;;;;;;;21.75;71.72;101385.47;5083114;28;20490;-78
2023/09/12 00:12:50;;;;;;;0.25;0.25;;;;;;;21.73;71.62;101387.38;5085347;28;20435;-80
2023/09/12 00:15:19;;;;;;;0.47;0.47;;;;;;;21.72;71.77;101397.31;5084415;28;20111;-79
2023/09/12 00:17:45;;;;;;;0.10;0.10;;;;;;;21.69;71.61;101386.69;5081209;28;20031;-77
2023/09/12 00:20:11;;;;;;;0.30;0.30;;;;;;;21.69;71.28;101383.97;5077256;28;21415;-79
2023/09/12 00:22:37;;;;;;;0.20;0.20;;;;;;;21.67;71.66;101382.34;5086688;28;20028;-79
2023/09/12 00:25:04;;;;;;;0.05;0.05;;;;;;;21.67;71.31;101379.63;5088016;28;20588;-79
2023/09/12 00:27:30;;;;;;;0.10;0.10;;;;;;;21.66;71.08;101384.19;5082281;28;20032;-77
2023/09/12 00:29:56;;;;;;;0.45;0.45;;;;;;;;;;5083913;28;20057;-79
2023/09/12 00:32:22;;;;;;;2.22;1.10;;;;;;;21.64;71.38;101376.16;5079884;28;20044;-77
2023/09/12 00:34:48;;;;;;;0.10;0.10;;;;;;;;;;5084268;28;20028;-78
2023/09/12 00:37:14;;;;;;;0.50;0.43;;;;;;;21.61;71.44;101373.66;5077387;28;20025;-78
2023/09/12 00:39:40;;;;;;;0.85;0.85;;;;;;;21.60;71.49;101371.91;5080711;28;20027;-77
2023/09/12 00:42:07;;;;;;;0.13;0.13;;;;;;;21.60;71.86;101381.84;5080190;28;20033;-78
2023/09/12 00:44:33;;;;;;;0.10;0.10;;;;;;;21.59;71.61;101369.31;5078927;28;20035;-79
2023/09/12 00:47:02;;;;;;;0.08;0.08;;;;;;;21.60;71.93;101368.34;5084944;28;20118;-79
2023/09/12 00:49:29;;;;;;;0.43;0.43;;;;;;;21.60;71.85;101366.50;5080292;28;20032;-78
2023/09/12 00:51:57;;;;;;;1.65;0.90;;;;;;;21.61;72.33;101375.50;5083384;28;20028;-79
2023/09/12 00:54:23;;;;;;;2.75;0.70;;;;;;;21.58;72.07;101372.97;5078631;28;20077;-78
2023/09/12 00:56:50;;;;;;;0.20;0.20;;;;;;;21.56;72.11;101364.09;5076045;28;20060;-79
2023/09/12 00:59:18;;;;;;;0.10;0.10;;;;;;;21.56;72.23;101372.16;5079561;28;20114;-78
2023/09/12 01:01:45;;;;;;;0.10;0.10;;;;;;;21.54;71.89;101369.53;5078116;28;20041;-79
2023/09/12 01:04:11;;;;;;;0.20;0.20;;;;;;;21.55;71.76;101365.03;5082072;28;20436;-79
2023/09/12 01:06:38;;;;;;;0.10;0.10;;;;;;;21.56;71.39;101362.28;5082964;28;21639;-80
2023/09/12 01:09:04;;;;;;;0.63;0.63;;;;;;;21.55;71.71;101365.03;5083319;28;20037;-80
2023/09/12 01:11:32;;;;;;;0.10;0.10;;;;;;;21.55;71.59;101375.81;5083889;28;20043;-80
2023/09/12 01:13:58;;;;;;;0.00;0.00;;;;;;;21.53;72.00;101372.31;5076782;28;20032;-79
2023/09/12 01:16:24;;;;;;;0.63;0.63;;;;;;;21.47;72.59;101371.72;5086189;28;20036;-80
2023/09/12 01:18:50;;;;;;;0.75;0.75;;;;;;;21.45;72.27;101372.78;5075057;28;20035;-81
2023/09/12 01:21:56;;;;;;;0.43;0.43;;;;;;;21.53;71.61;101367.78;5077374;28;20067;-81
2023/09/12 01:27:30;;;;;;;0.57;0.52;;;;;;;21.45;71.98;101353.91;5065174;28;20419;-80
2023/09/12 01:30:04;;;;;;;0.10;0.10;;;;;;;21.39;72.19;101355.13;5067149;28;20592;-79
2023/09/12 01:32:32;;;;;;;1.08;1.05;;;;;;;21.37;72.51;101359.75;5061314;28;20652;-80
2023/09/12 01:34:59;;;;;;;0.40;0.40;;;;;;;21.38;72.45;101360.59;5060580;28;20490;-80
2023/09/12 01:37:26;;;;;;;0.17;0.17;;;;;;;21.38;72.29;101357.91;5063035;28;20025;-79
2023/09/12 01:39:52;;;;;;;0.10;0.10;;;;;;;21.34;72.07;101363.47;5058309;28;20376;-81
2023/09/12 01:42:22;;;;;;;1.35;0.30;;;;;;;21.37;72.26;101366.94;5063442;28;20039;-81
2023/09/12 01:44:51;;;;;;;0.10;0.10;;;;;;;21.34;72.91;101366.16;5057513;28;20029;-80
2023/09/12 01:47:20;;;;;;;0.30;0.30;;;;;;;21.33;72.43;101367.13;5065400;28;20028;-80
2023/09/12 01:49:49;;;;;;;0.20;0.20;;;;;;;21.33;72.26;101363.56;5078785;28;20025;-79
2023/09/12 01:52:16;;;;;;;2.53;1.00;;;;;;;21.31;72.66;101360.94;5070103;28;20506;-81
2023/09/12 01:54:44;;;;;;;0.40;0.40;;;;;;;21.30;72.68;101361.91;5057305;28;20033;-81
2023/09/12 01:57:11;;;;;;;0.10;0.10;;;;;;;21.30;72.32;101361.91;5063099;28;20032;-81
2023/09/12 01:59:37;;;;;;;0.10;0.10;;;;;;;21.29;72.42;101352.06;5053478;28;20033;-82
2023/09/12 02:02:03;;;;;;;0.10;0.10;;;;;;;21.29;72.63;101368.25;5058412;28;20056;-81
2023/09/12 02:04:29;;;;;;;0.30;0.30;;;;;;;21.28;71.95;101366.53;5055459;28;20048;-80
2023/09/12 02:06:55;;;;;;;0.15;0.15;;;;;;;21.27;72.15;101382.75;5058950;28;20027;-81
2023/09/12 02:09:21;;;;;;;0.73;0.45;;;;;;;21.25;72.50;101374.78;5056383;28;20033;-80
2023/09/12 02:11:49;;;;;;;0.40;0.40;;;;;;;21.21;72.90;101381.31;5060255;28;20621;-80
2023/09/12 02:14:15;;;;;;;1.73;0.35;;;;;;;21.22;72.46;101368.69;5060525;28;20086;-80
2023/09/12 02:16:41;;;;;;;0.25;0.25;;;;;;;21.16;72.82;101372.63;5060383;28;20032;-80
2023/09/12 02:19:07;;;;;;;2.00;0.75;;;;;;;21.13;72.71;101364.69;5061922;28;20109;-81
2023/09/12 02:21:33;;;;;;;1.20;1.10;;;;;;;21.10;72.67;101362.19;5054302;28;20049;-81
2023/09/12 02:23:59;;;;;;;0.10;0.10;;;;;;;21.07;72.78;101367.72;5059294;28;20029;-80
2023/09/12 02:26:25;;;;;;;0.40;0.40;;;;;;;21.04;72.78;101378.69;5060805;28;20024;-81
2023/09/12 02:28:51;;;;;;;0.10;0.10;;;;;;;21.00;72.71;101373.47;5061567;28;20506;-80
2023/09/12 02:31:17;;;;;;;0.00;0.00;;;;;;;20.96;72.83;101369.19;5058652;28;20108;-80
2023/09/12 02:33:44;;;;;;;0.10;0.10;;;;;;;20.93;72.72;101366.66;5061735;28;20080;-79
2023/09/12 02:36:11;;;;;;;0.00;0.00;;;;;;;20.92;72.82;101370.34;5059212;28;20485;-81
2023/09/12 02:38:37;;;;;;;0.10;0.10;;;;;;;20.90;72.50;101364.16;5052954;28;20040;-81
2023/09/12 02:41:03;;;;;;;0.10;0.10;;;;;;;20.88;72.49;101366.06;5046136;28;20439;-80
2023/09/12 02:43:30;;;;;;;1.08;0.98;;;;;;;20.86;72.55;101373.38;5042742;28;20410;-79
2023/09/12 02:45:56;;;;;;;0.10;0.10;;;;;;;20.83;72.87;101368.13;5043393;28;20154;-81
2023/09/12 02:48:22;;;;;;;0.00;0.00;;;;;;;20.80;72.69;101365.63;5051825;28;20033;-79
2023/09/12 02:50:48;;;;;;;0.10;0.10;;;;;;;20.75;72.50;101364.97;5046791;28;20083;-79
2023/09/12 02:53:14;;;;;;;0.22;0.22;;;;;;;20.72;72.46;101363.31;5045179;28;20398;-81
2023/09/12 02:55:41;;;;;;;0.20;0.20;;;;;;;20.70;72.60;101362.53;5049336;28;20032;-80
2023/09/12 02:58:07;;;;;;;0.20;0.20;;;;;;;20.68;72.71;101359.91;5051475;28;20036;-80
2023/09/12 03:00:39;;;;;;;0.20;0.20;;;;;;;20.68;72.97;101353.66;5049235;28;20087;-80
2023/09/12 03:03:05;;;;;;;0.68;0.68;;;;;;;20.69;72.61;101356.25;5043699;28;20079;-79
2023/09/12 03:05:31;;;;;;;0.05;0.05;;;;;;;20.72;72.74;101360.63;5046874;28;20037;-80
2023/09/12 03:07:58;;;;;;;0.03;0.03;;;;;;;20.73;73.03;101354.31;5050292;28;20463;-81
2023/09/12 03:10:24;;;;;;;0.10;0.10;;;;;;;20.75;72.74;101348.81;5049802;28;20029;-80
2023/09/12 03:12:50;;;;;;;0.10;0.10;;;;;;;20.74;73.10;101353.34;5047656;28;20036;-80
2023/09/12 03:15:16;;;;;;;0.20;0.20;;;;;;;20.76;72.94;101346.06;5047931;28;20459;-80
2023/09/12 03:17:42;;;;;;;0.13;0.13;;;;;;;20.78;72.79;101346.84;5051220;28;20036;-81
2023/09/12 03:20:09;;;;;;;0.00;0.00;;;;;;;20.80;72.92;101350.31;5049902;28;20072;-80
2023/09/12 03:22:37;;;;;;;0.10;0.10;;;;;;;20.83;72.57;101341.19;5050368;28;20090;-81
2023/09/12 03:25:05;;;;;;;0.32;0.32;;;;;;;20.84;73.00;101337.56;5049488;28;20067;-81
2023/09/12 03:27:32;;;;;;;0.28;0.28;;;;;;;20.85;72.90;101344.69;5050595;28;20445;-81
2023/09/12 03:29:58;;;;;;;0.10;0.10;;;;;;;20.84;72.72;101337.56;5052047;28;20025;-82
2023/09/12 03:32:24;;;;;;;0.20;0.20;;;;;;;20.85;72.83;101342.00;5047017;28;20037;-81
2023/09/12 03:34:50;;;;;;;0.20;0.20;;;;;;;20.85;72.91;101350.06;5050864;28;20594;-81
2023/09/12 03:37:16;;;;;;;0.52;0.52;;;;;;;20.86;72.98;101346.44;5048521;28;20037;-81
2023/09/12 03:39:42;;;;;;;0.75;0.75;;;;;;;20.89;72.84;101345.41;5052158;28;20121;-81
2023/09/12 03:42:08;;;;;;;0.30;0.30;;;;;;;20.85;72.95;101347.38;5050610;28;20037;-81
2023/09/12 03:44:35;;;;;;;0.10;0.10;;;;;;;20.87;72.85;101358.91;5051594;28;20112;-81
2023/09/12 03:47:01;;;;;;;0.30;0.30;;;;;;;20.85;72.89;101361.72;5050461;28;20507;-82
2023/09/12 03:49:28;;;;;;;0.13;0.13;;;;;;;20.84;73.12;101359.97;5044287;28;20079;-81
2023/09/12 03:51:54;;;;;;;0.28;0.28;;;;;;;20.87;72.78;101361.63;5048715;28;20102;-82
2023/09/12 03:54:20;;;;;;;1.45;1.00;;;;;;;20.88;73.13;101354.44;5048756;28;20041;-82
2023/09/12 03:56:46;;;;;;;0.10;0.10;;;;;;;20.90;73.30;101350.69;5047703;28;20042;-82
2023/09/12 03:59:12;;;;;;;0.15;0.15;;;;;;;20.90;73.48;101342.59;5052203;28;20088;-82
2023/09/12 04:01:38;;;;;;;1.88;1.05;;;;;;;20.94;73.22;101343.31;5050967;28;20383;-81
2023/09/12 04:04:05;;;;;;;1.38;0.43;;;;;;;20.95;73.44;101351.28;5048382;28;20072;-82
2023/09/12 04:06:31;;;;;;;1.27;1.25;;;;;;;20.96;73.09;101344.97;5047522;28;20398;-81
2023/09/12 04:08:57;;;;;;;0.20;0.20;;;;;;;20.99;73.02;101347.47;5045196;28;20090;-81
2023/09/12 04:11:23;;;;;;;0.65;0.60;;;;;;;21.01;73.09;101347.41;5047193;28;20107;-81
2023/09/12 04:13:49;;;;;;;0.20;0.20;;;;;;;21.03;72.97;101350.00;5052378;28;20033;-80
2023/09/12 04:16:15;;;;;;;0.30;0.30;;;;;;;21.05;73.24;101353.47;5062039;28;20100;-83
2023/09/12 04:18:41;;;;;;;0.55;0.55;;;;;;;21.05;73.39;101353.47;5046548;28;20059;-83
2023/09/12 04:21:07;;;;;;;0.30;0.30;;;;;;;21.08;73.32;101364.09;5041615;28;20029;-84
2023/09/12 04:23:33;;;;;;;0.38;0.38;;;;;;;21.09;73.07;101358.59;5047457;28;20116;-83
2023/09/12 04:26:03;;;;;;;0.47;0.43;;;;;;;21.10;73.18;101359.50;5042249;28;20025;-81
2023/09/12 04:28:29;;;;;;;0.40;0.40;;;;;;;21.12;73.15;101354.84;5050573;28;20033;-81
2023/09/12 04:31:02;;;;;;;0.10;0.10;;;;;;;21.13;73.32;101341.31;5047970;28;20103;-81
2023/09/12 04:33:29;;;;;;;0.10;0.10;;;;;;;21.12;73.14;101349.47;5047979;28;20017;-81
2023/09/12 04:35:59;;;;;;;1.10;0.85;;;;;;;21.16;73.37;101346.53;5041347;28;20039;-80
2023/09/12 04:38:25;;;;;;;0.10;0.10;;;;;;;21.17;73.22;101347.38;5046516;28;20072;-79
2023/09/12 04:40:57;;;;;;;0.20;0.20;;;;;;;21.20;73.32;101344.53;5048743;28;20029;-81
2023/09/12 04:43:23;;;;;;;;;;;;;;;21.34;72.92;101352.69;5052602;28;20025;-80
2023/09/12 04:45:49;;;;;;;0.13;0.13;;;;;;;21.24;73.25;101346.09;5042741;28;20404;-82
2023/09/12 04:48:16;;;;;;;0.43;0.43;;;;;;;21.28;73.22;101342.28;5047875;28;20033;-82
2023/09/12 04:50:42;;;;;;;0.10;0.10;;;;;;;21.30;73.66;101340.34;5044808;28;20025;-82
2023/09/12 04:53:08;;;;;;;0.10;0.10;;;;;;;21.34;73.56;101347.28;5046187;28;20090;-79
2023/09/12 04:55:36;;;;;;;1.25;1.20;;;;;;;21.38;73.44;101342.59;5044814;28;20017;-81
2023/09/12 04:58:04;;;;;;;0.20;0.20;;;;;;;21.40;73.33;101346.06;5045905;28;20071;-80
2023/09/12 05:00:30;;;;;;;0.98;0.98;;;;;;;21.43;73.59;101345.03;5045932;28;20845;-81
2023/09/12 05:02:56;;;;;;;0.20;0.20;;;;;;;21.45;73.44;101348.50;5058291;28;20037;-81
2023/09/12 05:05:22;;;;;;;0.88;0.85;;;;;;;21.49;73.40;101350.06;5039050;28;20036;-79
2023/09/12 05:07:48;;;;;;;0.43;0.35;;;;;;;21.52;73.56;101349.00;5044586;28;20033;-80
2023/09/12 05:10:14;;;;;;;0.52;0.52;;;;;;;21.57;73.22;101336.16;5041191;28;20040;-79
2023/09/12 05:12:40;;;;;;;0.57;0.57;;;;;;;21.58;73.39;101346.00;5045612;28;20029;-80
2023/09/12 05:15:07;;;;;;;0.50;0.50;;;;;;;21.60;73.41;101347.63;5037483;28;20040;-80
2023/09/12 05:17:33;;;;;;;2.40;1.85;;;;;;;21.62;73.46;101343.03;5051167;28;20401;-80
2023/09/12 05:19:59;;;;;;;0.20;0.20;;;;;;;21.66;73.45;101349.13;5042262;28;20053;-80
2023/09/12 05:22:27;;;;;;;0.77;0.77;;;;;;;21.72;73.55;101345.19;5046404;28;20029;-80
2023/09/12 05:24:53;;;;;;;0.25;0.25;;;;;;;21.74;73.51;101343.28;5049332;28;20033;-80
2023/09/12 05:27:19;;;;;;;2.00;1.55;;;;;;;21.77;73.44;101348.47;5047119;28;20025;-80
2023/09/12 05:29:45;;;;;;;0.63;0.63;;;;;;;21.79;73.54;101347.44;5049123;28;20024;-80
2023/09/12 05:32:11;;;;;;;0.38;0.38;;;;;;;21.84;73.39;101349.84;5048160;28;20025;-79
2023/09/12 05:34:37;;;;;;;0.75;0.75;;;;;;;21.86;73.60;101347.06;5040829;28;20063;-80
2023/09/12 05:37:03;;;;;;;0.25;0.25;;;;;;;21.89;73.45;101349.59;5043348;28;20368;-80
2023/09/12 05:39:29;;;;;;;1.13;1.05;;;;;;;21.87;73.82;101349.69;5039664;28;20052;-81
2023/09/12 05:41:56;;;;;;;1.50;1.27;;;;;;;21.90;73.50;101360.28;5041491;28;20451;-81
2023/09/12 05:44:22;;;;;;;1.10;1.10;;;;;;;21.93;73.48;101362.81;5040922;28;20045;-80
2023/09/12 05:46:48;;;;;;;0.88;0.25;;;;;;;21.92;73.60;101352.06;5038640;28;20029;-80
2023/09/12 05:49:15;;;;;;;0.43;0.43;;;;;;;21.93;73.61;101362.81;5042992;28;20103;-80
2023/09/12 05:51:42;;;;;;;0.10;0.10;;;;;;;21.94;73.49;101355.56;5034358;28;20364;-80
2023/09/12 05:54:10;;;;;;;6.75;0.80;;;;;;;21.96;73.53;101354.50;5043318;28;20037;-81
2023/09/12 05:56:36;;;;;;;1.30;1.30;;;;;;;22.02;73.34;101363.19;5039799;28;20104;-81
2023/09/12 05:59:02;;;;;;;0.10;0.10;;;;;;;22.02;73.62;101358.69;5045168;28;20108;-82
2023/09/12 06:01:28;;;;;;;1.63;0.52;;;;;;;22.01;73.72;101356.06;5040592;28;20079;-80
2023/09/12 06:03:54;;;;;;;0.28;0.28;;;;;;;22.06;73.30;101353.97;5037860;28;20041;-81
2023/09/12 06:06:20;;;;;;;0.55;0.55;;;;;;;22.08;73.50;101357.44;5035381;28;20026;-80
2023/09/12 06:08:47;;;;;;;0.75;0.75;;;;;;;22.12;73.13;101364.41;5043999;28;20042;-81
2023/09/12 06:11:13;;;;;;;0.10;0.10;;;;;;;22.16;73.23;101370.44;5048163;28;20563;-80
2023/09/12 06:13:39;;;;;;;0.10;0.10;;;;;;;22.20;73.12;101377.41;5037716;28;20719;-81
2023/09/12 06:16:05;;;;;;;0.13;0.13;;;;;;;22.23;73.41;101371.81;5044298;28;20041;-80
2023/09/12 06:18:32;;;;;;;0.10;0.10;;;;;;;22.27;72.92;101374.25;5042650;28;20049;-80
2023/09/12 06:21:01;;;;;;;0.22;0.22;;;;;;;22.28;73.00;101370.59;5046128;28;20102;-80
2023/09/12 06:23:28;;;;;;;0.35;0.35;;;;;;;22.32;72.98;101378.47;5044607;28;20024;-81
2023/09/12 06:25:54;;;;;;;0.85;0.38;;;;;;;22.30;72.99;101379.44;5037632;28;20040;-80
2023/09/12 06:28:26;;;;;;;0.10;0.10;;;;;;;22.35;72.90;101381.00;5050896;28;20032;-81
2023/09/12 06:30:52;;;;;;;0.25;0.25;;;;;;;22.35;72.77;101384.56;5040260;28;20031;-81
2023/09/12 06:33:18;;;;;;;0.43;0.43;;;;;;;22.32;73.02;101384.78;5037893;28;20033;-80
2023/09/12 06:35:49;;;;;;;1.55;1.45;;;;;;;22.36;72.76;101390.84;5041627;28;20033;-80
2023/09/12 06:38:16;;;;;;;0.40;0.40;;;;;;;22.35;72.85;101389.13;5043586;28;20033;-79
2023/09/12 06:40:43;;;;;;;1.00;0.65;;;;;;;22.39;72.82;101390.69;5054747;28;20035;-79
2023/09/12 06:43:09;;;;;;;2.08;1.98;;;;;;;22.40;73.01;101392.44;5055938;28;20039;-82
2023/09/12 06:45:37;;;;;;;0.47;0.47;;;;;;;22.43;73.03;101395.81;5045032;28;20083;-81
2023/09/12 06:48:04;;;;;;;2.72;0.93;;;;;;;22.46;73.12;101387.50;5048269;28;20037;-81
2023/09/12 06:50:30;;;;;;;0.82;0.82;;;;;;;22.53;73.16;101395.22;5046711;28;20037;-81
2023/09/12 06:52:56;;;;;;;0.93;0.93;;;;;;;22.57;73.44;101392.25;5050865;28;20097;-81
2023/09/12 06:55:24;;;;;;;0.57;0.57;;;;;;;22.65;73.13;101389.06;5045204;28;20459;-81
2023/09/12 06:57:50;;;;;;;0.30;0.30;;;;;;;22.72;73.28;101394.97;5050426;28;20064;-82
2023/09/12 07:00:16;;;;;;;0.32;0.32;;;;;;;22.81;73.15;101383.56;5052326;28;20037;-83
2023/09/12 07:02:43;;;;;;;0.63;0.60;;;;;;;22.90;73.09;101387.53;5051105;28;20033;-79
2023/09/12 07:05:09;;;;;;;0.47;0.47;;;;;;;22.98;73.18;101385.22;5041833;28;20108;-80
2023/09/12 07:07:35;;;;;;;0.80;0.80;;;;;;;23.03;72.89;101382.19;5043610;28;20037;-81
2023/09/12 07:10:01;;;;;;;0.43;0.43;;;;;;;23.04;72.52;101383.94;5051671;28;20037;-81
2023/09/12 07:12:32;;;;;;;1.73;1.20;;;;;;;23.08;72.44;101380.09;5039701;28;20044;-82
2023/09/12 07:14:58;;;;;;;0.25;0.25;;;;;;;23.08;72.29;101382.78;5048872;28;20029;-82
2023/09/12 07:17:27;;;;;;;0.68;0.68;;;;;;;23.11;72.36;101385.28;5040454;28;20116;-79
2023/09/12 07:19:53;;;;;;;1.25;0.85;;;;;;;23.13;72.31;101383.34;5054175;28;20033;-79
2023/09/12 07:22:19;;;;;;;0.50;0.50;;;;;;;23.16;72.13;101383.19;5046351;28;20036;-79
2023/09/12 07:24:45;;;;;;;0.20;0.20;;;;;;;23.22;72.06;101393.59;5038887;28;20025;-79
2023/09/12 07:27:11;;;;;;;1.67;1.58;;;;;;;23.24;72.01;101382.66;5038841;28;20070;-79
2023/09/12 07:29:38;;;;;;;0.90;0.90;;;;;;;23.27;71.82;101380.63;5038748;28;20033;-79
2023/09/12 07:32:04;;;;;;;1.23;1.10;;;;;;;23.25;72.03;101382.59;5048602;28;20058;-79
2023/09/12 07:34:30;;;;;;;2.40;2.25;;;;;;;23.23;71.72;101383.66;5045599;28;20441;-78
2023/09/12 07:36:57;;;;;;;1.85;1.75;;;;;;;23.20;71.26;101383.84;5045163;28;20051;-80
2023/09/12 07:39:23;;;;;;;2.38;1.70;;;;;;;23.27;71.47;101388.75;5050060;28;20021;-81
2023/09/12 07:41:49;;;;;;;2.03;1.55;;;;;;;23.25;71.19;101393.41;5041677;28;20036;-81
2023/09/12 07:44:16;;;;;;;2.38;2.17;;;;;;;23.22;70.80;101403.56;5043674;28;20032;-79
2023/09/12 07:46:43;;;;;;;7.93;3.58;;;;;;;23.19;70.62;101410.03;5038595;28;20049;-79
2023/09/12 07:49:09;;;;;;;1.35;1.23;;;;;;;23.25;70.97;101406.94;5040651;28;20041;-80
2023/09/12 07:51:35;;;;;;;2.95;1.13;;;;;;;23.35;71.08;101404.50;5038448;28;20044;-80
2023/09/12 07:54:02;;;;;;;0.13;0.13;;;;;;;23.39;70.95;101405.13;5049416;28;20033;-80
2023/09/12 07:56:28;;;;;;;1.10;1.05;;;;;;;23.43;70.87;101404.00;5040108;28;20034;-80
2023/09/12 07:58:56;;;;;;;2.25;2.15;;;;;;;23.42;70.87;101405.81;5047037;28;20046;-77
2023/09/12 08:01:22;;;;;;;2.53;1.63;;;;;;;23.47;70.31;101413.63;5048243;28;20032;-79
2023/09/12 08:03:48;;;;;;;1.30;1.27;;;;;;;23.50;69.95;101413.44;5052630;28;20037;-78
2023/09/12 08:06:14;;;;;;;7.00;1.70;;;;;;;23.47;69.35;101408.22;5057366;28;20394;-81
2023/09/12 08:08:40;;;;;;;0.60;0.60;;;;;;;23.50;69.89;101412.56;5054342;28;20060;-79
2023/09/12 08:11:06;;;;;;;0.88;0.88;;;;;;;23.53;69.59;101402.41;5050214;28;20025;-79
2023/09/12 08:13:32;;;;;;;2.72;2.53;;;;;;;23.50;69.68;101413.44;5045335;28;20032;-78
2023/09/12 08:15:59;;;;;;;2.90;1.45;;;;;;;23.51;69.10;101415.16;5048213;28;20025;-78
2023/09/12 08:18:30;;;;;;;1.27;1.25;;;;;;;23.47;68.96;101413.63;5051927;28;20029;-78
2023/09/12 08:20:57;;;;;;;1.52;1.42;;;;;;;23.48;68.81;101419.88;5042664;28;20034;-79
2023/09/12 08:23:23;;;;;;;0.40;0.40;;;;;;;23.45;68.85;101412.84;5053647;28;20025;-78
2023/09/12 08:25:49;;;;;;;0.20;0.20;;;;;;;23.54;69.07;101416.78;5042873;28;20064;-79
2023/09/12 08:28:15;;;;;;;1.45;1.45;;;;;;;23.59;69.37;101412.81;5043980;28;20443;-78
2023/09/12 08:30:43;;;;;;;2.03;1.27;;;;;;;23.68;69.33;101422.16;5045072;28;20029;-77
2023/09/12 08:33:09;;;;;;;0.60;0.60;;;;;;;23.79;69.33;101424.16;5043691;28;20037;-78
2023/09/12 08:35:35;;;;;;;1.02;1.02;;;;;;;23.88;69.24;101418.13;5042503;28;20030;-78
2023/09/12 08:38:02;;;;;;;3.88;1.85;;;;;;;23.94;68.68;101416.88;5049123;28;20045;-78
2023/09/12 08:40:30;;;;;;;3.30;2.05;;;;;;;24.06;68.32;101421.47;5048347;28;20498;-79
2023/09/12 08:42:58;;;;;;;2.22;2.13;;;;;;;24.17;67.35;101417.16;5048022;28;20053;-78
2023/09/12 08:45:24;;;;;;;1.08;1.08;;;;;;;24.31;67.52;101416.19;5047031;28;20029;-78
2023/09/12 08:47:53;;;;;;;3.05;2.05;;;;;;;24.38;68.02;101420.22;5047673;28;20056;-78
2023/09/12 08:50:23;;;;;;;3.42;2.40;;;;;;;24.35;65.99;101412.28;5046106;28;20067;-78
2023/09/12 08:52:49;;;;;;;1.50;1.40;;;;;;;24.35;65.82;101412.28;5053337;28;20025;-79
2023/09/12 08:55:15;;;;;;;2.10;2.00;;;;;;;24.41;66.58;101413.72;5048711;28;20041;-78
2023/09/12 08:57:42;;;;;;;0.68;0.63;;;;;;;24.50;67.43;101419.38;5049902;28;20033;-78
2023/09/12 09:00:12;;;;;;;0.32;0.32;;;;;;;24.49;66.44;101412.19;5047943;28;20100;-78
2023/09/12 09:02:40;;;;;;;1.45;1.40;;;;;;;24.44;65.55;101413.53;5049404;28;20486;-78
2023/09/12 09:05:09;;;;;;;0.75;0.75;;;;;;;24.43;65.85;101411.78;5047487;28;20072;-77
2023/09/12 09:07:40;;;;;;;0.50;0.50;;;;;;;24.46;66.30;101415.16;5045964;28;20384;-78
2023/09/12 09:10:08;;;;;;;1.85;1.75;;;;;;;24.45;66.05;101416.13;5058311;28;20252;-78
2023/09/12 09:12:35;;;;;;;1.13;1.10;;;;;;;24.51;66.76;101410.25;5049322;28;20036;-79
2023/09/12 09:18:03;;;;;;;0.70;0.70;;;;;;;24.66;64.92;101426.44;5073164;28;20388;-79
2023/09/12 09:20:34;;;;;;;0.43;0.43;;;;;;;24.71;65.02;101421.56;5052608;28;20057;-80
2023/09/12 09:23:06;;;;;;;1.30;1.20;;;;;;;24.65;65.81;101424.69;5026194;28;20034;-80
2023/09/12 09:25:33;;;;;;;1.05;1.05;;;;;;;24.74;65.39;101426.75;5031963;28;20030;-80
2023/09/12 09:28:04;;;;;;;1.38;1.38;;;;;;;24.70;65.13;101438.81;5023381;28;20030;-79
2023/09/12 09:30:48;;;;;;;1.33;1.30;;;;;;;24.82;65.69;101435.22;5022651;28;20175;-80
2023/09/12 09:33:14;;;;;;;1.45;1.42;;;;;;;24.83;66.07;101436.94;5022285;28;20399;-79
2023/09/12 09:35:42;;;;;;;0.98;0.98;;;;;;;24.93;65.96;101436.31;5031895;28;20380;-79
2023/09/12 09:38:09;;;;;;;0.85;0.50;;;;;;;25.07;66.04;101433.44;5030513;28;20029;-79
2023/09/12 09:40:36;;;;;;;1.17;1.10;;;;;;;25.12;64.25;101430.41;5024843;28;20026;-78
2023/09/12 09:43:03;;;;;;;1.63;1.52;;;;;;;25.17;65.02;101439.97;5019770;28;20731;-78
2023/09/12 09:45:31;;;;;;;10.93;2.53;;;;;;;25.15;64.28;101444.63;5020867;28;20057;-79
2023/09/12 09:47:59;;;;;;;2.17;2.08;;;;;;;25.18;64.20;101438.97;5018078;28;20044;-77
2023/09/12 09:50:26;;;;;;;2.28;2.08;;;;;;;25.19;64.90;101432.56;5022369;28;20096;-78
2023/09/12 09:52:55;;;;;;;23.20;1.92;;;;;;;25.20;63.88;101439.72;5027015;28;20049;-79
2023/09/12 09:55:21;;;;;;;1.08;1.00;;;;;;;25.26;64.10;101437.53;5032369;28;20037;-80
2023/09/12 09:57:48;;;;;;;1.42;1.40;;;;;;;25.26;63.40;101445.66;5027768;28;20034;-79
2023/09/12 10:00:14;;;;;;;1.33;1.33;;;;;;;25.33;63.98;101445.13;5030472;28;20037;-80
2023/09/12 10:02:42;;;;;;;1.75;1.50;;;;;;;25.39;63.35;101445.69;5032792;28;20697;-80
2023/09/12 10:05:11;;;;;;;1.27;0.70;;;;;;;25.48;62.84;101448.59;5031359;28;20079;-80
2023/09/12 10:07:40;;;;;;;3.60;2.72;;;;;;;25.60;62.43;101446.81;5023375;28;20037;-79
2023/09/12 10:10:07;;;;;;;1.13;1.13;;;;;;;25.75;62.51;101442.06;5029423;28;20117;-80
2023/09/12 10:12:37;;;;;;;0.45;0.45;;;;;;;25.91;62.62;101438.22;5023157;28;20033;-79
2023/09/12 10:15:06;;;;;;;0.75;0.75;;;;;;;26.11;62.48;101437.59;5020601;28;20076;-80
2023/09/12 10:17:36;;;;;;;1.95;1.85;;;;;;;26.22;61.30;101433.16;5028296;28;20026;-80
2023/09/12 10:20:09;;;;;;;1.98;1.83;;;;;;;26.18;60.48;101439.81;5022506;28;20567;-80
2023/09/12 10:22:40;;;;;;;0.73;0.73;;;;;;;26.29;60.81;101431.72;5021079;28;20669;-80
2023/09/12 10:25:08;;;;;;;1.65;1.45;;;;;;;26.40;60.96;101422.75;5023247;28;20026;-80
2023/09/12 10:27:34;;;;;;;0.65;0.65;;;;;;;26.51;60.14;101430.06;5022916;28;20368;-80
2023/09/12 10:30:02;;;;;;;0.70;0.70;;;;;;;26.66;60.25;101433.41;5008113;28;20053;-80
2023/09/12 10:32:30;;;;;;;0.13;0.13;;;;;;;26.75;58.85;101430.84;5006702;28;20500;-80
2023/09/12 10:34:59;;;;;;;0.55;0.55;;;;;;;26.90;59.24;101427.91;5007826;28;20037;-79
2023/09/12 10:37:28;;;;;;;1.35;1.23;;;;;;;26.91;57.04;101425.03;5013228;28;20483;-79
2023/09/12 10:39:55;;;;;;;2.50;1.60;;;;;;;26.94;57.54;101421.22;5017641;28;20046;-80
2023/09/12 10:42:23;;;;;;;1.75;1.27;;;;;;;27.02;59.00;101420.63;5013817;28;20041;-78
2023/09/12 10:44:51;;;;;;;0.30;0.30;;;;;;;27.08;58.40;101420.97;5015340;28;20492;-79
2023/09/12 10:47:18;;;;;;;0.98;0.98;;;;;;;27.26;57.98;101420.47;5010833;28;20042;-80
2023/09/12 10:49:45;;;;;;;1.15;1.13;;;;;;;27.32;56.37;101414.50;5017136;28;20034;-81
2023/09/12 10:52:23;;;;;;;1.05;0.82;;;;;;;27.26;54.08;101409.56;5014639;28;20038;-81
2023/09/12 10:54:49;;;;;;;0.20;0.20;;;;;;;27.39;57.39;101407.56;5019225;28;20037;-81
2023/09/12 10:57:15;;;;;;;1.95;1.63;;;;;;;27.38;55.76;101403.13;5013512;28;20037;-79
2023/09/12 11:02:41;;;;;;;0.80;0.60;;;;;;;27.45;56.36;101392.59;5112398;27;20190;-77
2023/09/12 11:08:06;;;;;;;1.00;0.93;;;;;;;27.58;55.20;101376.13;5096898;27;20381;-77
2023/09/12 11:10:32;;;;;;;1.10;0.90;;;;;;;27.67;55.38;101386.25;5095195;28;20059;-79
2023/09/12 11:12:59;;;;;;;0.98;0.98;;;;;;;27.86;56.26;101390.13;5096009;28;20058;-79
2023/09/12 11:15:27;;;;;;;1.25;1.15;;;;;;;28.03;53.59;101389.53;5097130;28;20048;-80
2023/09/12 11:18:05;;;;;;;2.90;1.15;;;;;;;28.25;53.67;101390.44;5088308;28;20024;-79
2023/09/12 11:20:58;;;;;;;1.10;0.55;;;;;;;28.46;54.55;101392.28;5099503;28;20101;-80
2023/09/12 11:23:25;;;;;;;0.20;0.20;;;;;;;28.41;52.97;101388.13;5095635;28;20028;-79
2023/09/12 11:26:05;;;;;;;0.85;0.70;;;;;;;28.44;53.78;101386.09;5098292;28;20032;-81
2023/09/12 11:28:32;;;;;;;0.35;0.35;;;;;;;28.36;54.20;101390.41;5100966;28;20008;-79
2023/09/12 11:30:58;;;;;;;0.28;0.25;;;;;;;28.38;54.36;101404.72;5109711;28;20047;-81
2023/09/12 11:33:26;;;;;;;1.55;1.45;;;;;;;28.39;53.51;101401.00;5099616;28;20043;-79
2023/09/12 11:35:54;;;;;;;0.73;0.73;;;;;;;28.34;52.66;101400.56;5096133;28;20056;-81
2023/09/12 11:38:30;;;;;;;0.30;0.30;;;;;;;28.46;52.85;101403.19;5099316;28;20039;-77